sensor_id;sensor_type;location;lat;lon;timestamp;pressure;altitude;pressure_sealevel;temperature;humidity
60583;BME280;46415;47.536;19.066;2024-02-21T00:00:42;-18435.44;;;7.57;100.00
60583;BME280;46415;47.536;19.066;2024-02-21T00:03:45;-18436.38;;;7.61;100.00
60583;BME280;46415;47.536;19.066;2024-02-21T00:06:47;-18435.69;;;7.58;100.00
60583;BME280;46415;47.536;19.066;2024-02-21T00:09:50;-18436.53;;;7.61;100.00
60583;BME280;46415;47.536;19.066;2024-02-21T00:12:53;-18437.47;;;7.65;100.00
60583;BME280;46415;47.536;19.066;2024-02-21T00:15:56;-18437.75;;;7.66;100.00
60583;BME280;46415;47.536;19.066;2024-02-21T00:18:59;-18436.94;;;7.63;100.00
60583;BME280;46415;47.536;19.066;2024-02-21T00:22:02;-18436.53;;;7.61;100.00
60583;BME280;46415;47.536;19.066;2024-02-21T00:25:05;-18435.84;;;7.59;100.00
60583;BME280;46415;47.536;19.066;2024-02-21T00:28:07;-18436.53;;;7.61;100.00
60583;BME280;46415;47.536;19.066;2024-02-21T00:31:10;-18435.44;;;7.57;100.00
60583;BME280;46415;47.536;19.066;2024-02-21T00:34:13;-18432.81;;;7.48;100.00
60583;BME280;46415;47.536;19.066;2024-02-21T00:37:16;-18430.91;;;7.41;100.00
60583;BME280;46415;47.536;19.066;2024-02-21T00:40:19;-18431.03;;;7.41;100.00
60583;BME280;46415;47.536;19.066;2024-02-21T00:43:24;-18431.03;;;7.41;100.00
60583;BME280;46415;47.536;19.066;2024-02-21T00:46:27;-18431.31;;;7.42;100.00
60583;BME280;46415;47.536;19.066;2024-02-21T00:49:30;-18429.38;;;7.35;100.00
60583;BME280;46415;47.536;19.066;2024-02-21T00:52:33;-18427.31;;;7.27;100.00
60583;BME280;46415;47.536;19.066;2024-02-21T00:55:36;-18429.66;;;7.36;100.00
60583;BME280;46415;47.536;19.066;2024-02-21T00:58:39;-18428.00;;;7.30;100.00
60583;BME280;46415;47.536;19.066;2024-02-21T01:01:41;-18426.09;;;7.23;100.00
60583;BME280;46415;47.536;19.066;2024-02-21T01:04:45;-18425.13;;;7.19;100.00
60583;BME280;46415;47.536;19.066;2024-02-21T01:07:48;-18425.00;;;7.19;100.00
60583;BME280;46415;47.536;19.066;2024-02-21T01:10:51;-18425.00;;;7.19;100.00
60583;BME280;46415;47.536;19.066;2024-02-21T01:13:55;-18421.69;;;7.07;100.00
60583;BME280;46415;47.536;19.066;2024-02-21T01:16:58;-18424.44;;;7.17;100.00
60583;BME280;46415;47.536;19.066;2024-02-21T01:20:01;-18423.34;;;7.13;100.00
60583;BME280;46415;47.536;19.066;2024-02-21T01:23:04;-18422.25;;;7.09;100.00
60583;BME280;46415;47.536;19.066;2024-02-21T01:26:09;-18423.50;;;7.13;100.00
60583;BME280;46415;47.536;19.066;2024-02-21T01:29:15;-18422.66;;;7.10;100.00
60583;BME280;46415;47.536;19.066;2024-02-21T01:32:18;-18422.94;;;7.11;100.00
60583;BME280;46415;47.536;19.066;2024-02-21T01:35:21;-18423.34;;;7.13;100.00
60583;BME280;46415;47.536;19.066;2024-02-21T01:38:24;-18421.97;;;7.08;100.00
60583;BME280;46415;47.536;19.066;2024-02-21T01:41:29;-18420.06;;;7.01;100.00
60583;BME280;46415;47.536;19.066;2024-02-21T01:44:32;-18419.91;;;7.00;100.00
60583;BME280;46415;47.536;19.066;2024-02-21T01:47:37;-18419.22;;;6.97;100.00
60583;BME280;46415;47.536;19.066;2024-02-21T01:50:39;-18418.69;;;6.95;100.00
60583;BME280;46415;47.536;19.066;2024-02-21T01:53:43;-18421.69;;;7.07;100.00
60583;BME280;46415;47.536;19.066;2024-02-21T01:56:47;-18420.47;;;7.02;100.00
60583;BME280;46415;47.536;19.066;2024-02-21T01:59:50;-18419.78;;;7.00;100.00
60583;BME280;46415;47.536;19.066;2024-02-21T02:02:53;-18421.44;;;7.06;100.00
60583;BME280;46415;47.536;19.066;2024-02-21T02:05:58;-18419.38;;;6.98;100.00
60583;BME280;46415;47.536;19.066;2024-02-21T02:09:01;-18419.22;;;6.97;100.00
60583;BME280;46415;47.536;19.066;2024-02-21T02:12:04;-18416.75;;;6.88;100.00
60583;BME280;46415;47.536;19.066;2024-02-21T02:15:07;-18417.84;;;6.92;100.00
60583;BME280;46415;47.536;19.066;2024-02-21T02:18:11;-18417.84;;;6.92;100.00
60583;BME280;46415;47.536;19.066;2024-02-21T02:21:32;-18416.06;;;6.86;100.00
60583;BME280;46415;47.536;19.066;2024-02-21T02:24:37;-18416.22;;;6.86;100.00
60583;BME280;46415;47.536;19.066;2024-02-21T02:27:43;-18416.47;;;6.87;100.00
60583;BME280;46415;47.536;19.066;2024-02-21T02:30:49;-18414.84;;;6.81;100.00
60583;BME280;46415;47.536;19.066;2024-02-21T02:33:51;-18412.91;;;6.74;100.00
60583;BME280;46415;47.536;19.066;2024-02-21T02:36:55;-18410.03;;;6.64;100.00
60583;BME280;46415;47.536;19.066;2024-02-21T02:39:57;-18408.78;;;6.59;100.00
60583;BME280;46415;47.536;19.066;2024-02-21T02:43:00;-18408.78;;;6.59;100.00
60583;BME280;46415;47.536;19.066;2024-02-21T02:46:03;-18409.34;;;6.61;100.00
60583;BME280;46415;47.536;19.066;2024-02-21T02:49:06;-18407.56;;;6.54;100.00
60583;BME280;46415;47.536;19.066;2024-02-21T02:52:09;-18407.97;;;6.56;100.00
60583;BME280;46415;47.536;19.066;2024-02-21T02:55:12;-18407.56;;;6.54;100.00
60583;BME280;46415;47.536;19.066;2024-02-21T02:58:15;-18406.31;;;6.50;100.00
60583;BME280;46415;47.536;19.066;2024-02-21T03:01:18;-18405.91;;;6.48;100.00
60583;BME280;46415;47.536;19.066;2024-02-21T03:04:20;-18404.41;;;6.43;100.00
60583;BME280;46415;47.536;19.066;2024-02-21T03:07:24;-18403.56;;;6.40;100.00
60583;BME280;46415;47.536;19.066;2024-02-21T03:10:27;-18402.88;;;6.37;100.00
60583;BME280;46415;47.536;19.066;2024-02-21T03:13:30;-18405.50;;;6.47;100.00
60583;BME280;46415;47.536;19.066;2024-02-21T03:16:33;-18404.81;;;6.44;100.00
60583;BME280;46415;47.536;19.066;2024-02-21T03:19:36;-18404.13;;;6.42;100.00
60583;BME280;46415;47.536;19.066;2024-02-21T03:22:38;-18403.16;;;6.38;100.00
60583;BME280;46415;47.536;19.066;2024-02-21T03:25:41;-18402.75;;;6.37;100.00
60583;BME280;46415;47.536;19.066;2024-02-21T03:28:44;-18403.16;;;6.38;100.00
60583;BME280;46415;47.536;19.066;2024-02-21T03:31:51;-18403.03;;;6.38;100.00
60583;BME280;46415;47.536;19.066;2024-02-21T03:34:53;-18400.28;;;6.28;100.00
60583;BME280;46415;47.536;19.066;2024-02-21T03:37:57;-18398.50;;;6.21;100.00
60583;BME280;46415;47.536;19.066;2024-02-21T03:41:00;-18396.97;;;6.15;100.00
60583;BME280;46415;47.536;19.066;2024-02-21T03:44:03;-18394.09;;;6.05;100.00
60583;BME280;46415;47.536;19.066;2024-02-21T03:47:06;-18391.63;;;5.96;100.00
60583;BME280;46415;47.536;19.066;2024-02-21T03:50:09;-18389.97;;;5.90;100.00
60583;BME280;46415;47.536;19.066;2024-02-21T03:53:12;-18388.88;;;5.86;100.00
60583;BME280;46415;47.536;19.066;2024-02-21T03:56:15;-18385.72;;;5.74;100.00
60583;BME280;46415;47.536;19.066;2024-02-21T03:59:18;-18383.22;;;5.65;100.00
60583;BME280;46415;47.536;19.066;2024-02-21T04:02:21;-18381.88;;;5.60;100.00
60583;BME280;46415;47.536;19.066;2024-02-21T04:05:24;-18380.63;;;5.55;100.00
60583;BME280;46415;47.536;19.066;2024-02-21T04:08:29;-18381.03;;;5.57;100.00
60583;BME280;46415;47.536;19.066;2024-02-21T04:11:32;-18381.44;;;5.58;100.00
60583;BME280;46415;47.536;19.066;2024-02-21T04:14:35;-18379.66;;;5.52;100.00
60583;BME280;46415;47.536;19.066;2024-02-21T04:17:38;-18380.22;;;5.54;100.00
60583;BME280;46415;47.536;19.066;2024-02-21T04:20:41;-18381.03;;;5.57;100.00
60583;BME280;46415;47.536;19.066;2024-02-21T04:23:44;-18382.97;;;5.64;100.00
60583;BME280;46415;47.536;19.066;2024-02-21T04:26:46;-18379.66;;;5.52;100.00
60583;BME280;46415;47.536;19.066;2024-02-21T04:29:49;-18378.16;;;5.46;100.00
60583;BME280;46415;47.536;19.066;2024-02-21T04:32:52;-18379.94;;;5.53;100.00
60583;BME280;46415;47.536;19.066;2024-02-21T04:35:55;-18381.72;;;5.59;100.00
60583;BME280;46415;47.536;19.066;2024-02-21T04:38:58;-18382.81;;;5.63;100.00
60583;BME280;46415;47.536;19.066;2024-02-21T04:42:00;-18383.38;;;5.65;100.00
60583;BME280;46415;47.536;19.066;2024-02-21T04:45:03;-18382.97;;;5.64;100.00
60583;BME280;46415;47.536;19.066;2024-02-21T04:48:06;-18381.59;;;5.59;100.00
60583;BME280;46415;47.536;19.066;2024-02-21T04:51:09;-18382.13;;;5.61;100.00
60583;BME280;46415;47.536;19.066;2024-02-21T04:54:12;-18382.41;;;5.62;100.00
60583;BME280;46415;47.536;19.066;2024-02-21T04:57:15;-18382.13;;;5.61;100.00
60583;BME280;46415;47.536;19.066;2024-02-21T05:00:20;-18382.41;;;5.62;100.00
60583;BME280;46415;47.536;19.066;2024-02-21T05:03:22;-18382.69;;;5.63;100.00
60583;BME280;46415;47.536;19.066;2024-02-21T05:06:25;-18380.47;;;5.55;100.00
60583;BME280;46415;47.536;19.066;2024-02-21T05:09:28;-18382.28;;;5.61;100.00
60583;BME280;46415;47.536;19.066;2024-02-21T05:12:31;-18381.44;;;5.58;100.00
60583;BME280;46415;47.536;19.066;2024-02-21T05:15:33;-18377.59;;;5.44;100.00
60583;BME280;46415;47.536;19.066;2024-02-21T05:18:36;-18376.38;;;5.40;100.00
60583;BME280;46415;47.536;19.066;2024-02-21T05:21:39;-18378.16;;;5.46;100.00
60583;BME280;46415;47.536;19.066;2024-02-21T05:24:42;-18375.41;;;5.36;100.00
60583;BME280;46415;47.536;19.066;2024-02-21T05:27:44;-18375.41;;;5.36;100.00
60583;BME280;46415;47.536;19.066;2024-02-21T05:30:48;-18376.50;;;5.40;100.00
60583;BME280;46415;47.536;19.066;2024-02-21T05:33:50;-18375.00;;;5.34;100.00
60583;BME280;46415;47.536;19.066;2024-02-21T05:36:53;-18371.97;;;5.23;100.00
60583;BME280;46415;47.536;19.066;2024-02-21T05:39:56;-18369.75;;;5.15;100.00
60583;BME280;46415;47.536;19.066;2024-02-21T05:42:59;-18372.22;;;5.24;100.00
60583;BME280;46415;47.536;19.066;2024-02-21T05:46:02;-18371.81;;;5.23;100.00
60583;BME280;46415;47.536;19.066;2024-02-21T05:49:05;-18373.06;;;5.27;100.00
60583;BME280;46415;47.536;19.066;2024-02-21T05:52:08;-18374.16;;;5.31;100.00
60583;BME280;46415;47.536;19.066;2024-02-21T05:55:11;-18372.50;;;5.25;100.00
60583;BME280;46415;47.536;19.066;2024-02-21T05:58:13;-18373.75;;;5.30;100.00
60583;BME280;46415;47.536;19.066;2024-02-21T06:01:16;-18373.34;;;5.28;100.00
60583;BME280;46415;47.536;19.066;2024-02-21T06:04:20;-18373.63;;;5.29;100.00
60583;BME280;46415;47.536;19.066;2024-02-21T06:07:23;-18374.44;;;5.32;100.00
60583;BME280;46415;47.536;19.066;2024-02-21T06:10:26;-18376.50;;;5.40;100.00
60583;BME280;46415;47.536;19.066;2024-02-21T06:13:29;-18376.78;;;5.41;100.00
60583;BME280;46415;47.536;19.066;2024-02-21T06:16:32;-18378.00;;;5.46;100.00
60583;BME280;46415;47.536;19.066;2024-02-21T06:19:35;-18380.22;;;5.54;100.00
60583;BME280;46415;47.536;19.066;2024-02-21T06:22:38;-18381.31;;;5.58;100.00
60583;BME280;46415;47.536;19.066;2024-02-21T06:25:40;-18384.47;;;5.69;100.00
60583;BME280;46415;47.536;19.066;2024-02-21T06:28:43;-18385.16;;;5.72;100.00
60583;BME280;46415;47.536;19.066;2024-02-21T06:31:49;-18385.56;;;5.73;100.00
60583;BME280;46415;47.536;19.066;2024-02-21T06:34:52;-18385.03;;;5.71;100.00
60583;BME280;46415;47.536;19.066;2024-02-21T06:37:55;-18385.03;;;5.71;100.00
60583;BME280;46415;47.536;19.066;2024-02-21T06:40:58;-18386.13;;;5.75;100.00
60583;BME280;46415;47.536;19.066;2024-02-21T06:44:03;-18386.66;;;5.78;100.00
60583;BME280;46415;47.536;19.066;2024-02-21T06:47:06;-18387.91;;;5.82;100.00
60583;BME280;46415;47.536;19.066;2024-02-21T06:50:10;-18390.09;;;5.90;100.00
60583;BME280;46415;47.536;19.066;2024-02-21T06:53:14;-18391.91;;;5.97;100.00
60583;BME280;46415;47.536;19.066;2024-02-21T06:56:17;-18395.75;;;6.11;100.00
60583;BME280;46415;47.536;19.066;2024-02-21T06:59:20;-18399.31;;;6.24;100.00
60583;BME280;46415;47.536;19.066;2024-02-21T07:02:22;-18402.19;;;6.35;100.00
60583;BME280;46415;47.536;19.066;2024-02-21T07:05:25;-18406.03;;;6.49;100.00
60583;BME280;46415;47.536;19.066;2024-02-21T07:08:28;-18408.38;;;6.57;100.00
60583;BME280;46415;47.536;19.066;2024-02-21T07:11:31;-18412.22;;;6.72;100.00
60583;BME280;46415;47.536;19.066;2024-02-21T07:14:35;-18414.84;;;6.81;100.00
60583;BME280;46415;47.536;19.066;2024-02-21T07:17:38;-18416.06;;;6.86;100.00
60583;BME280;46415;47.536;19.066;2024-02-21T07:20:42;-18420.31;;;7.02;100.00
60583;BME280;46415;47.536;19.066;2024-02-21T07:23:44;-18424.16;;;7.16;100.00
60583;BME280;46415;47.536;19.066;2024-02-21T07:26:47;-18426.78;;;7.25;100.00
60583;BME280;46415;47.536;19.066;2024-02-21T07:29:50;-18428.00;;;7.30;100.00
60583;BME280;46415;47.536;19.066;2024-02-21T07:32:53;-18429.53;;;7.35;100.00
60583;BME280;46415;47.536;19.066;2024-02-21T07:35:56;-18430.34;;;7.38;100.00
60583;BME280;46415;47.536;19.066;2024-02-21T07:38:59;-18435.69;;;7.58;100.00
60583;BME280;46415;47.536;19.066;2024-02-21T07:42:02;-18434.19;;;7.53;100.00
60583;BME280;46415;47.536;19.066;2024-02-21T07:45:07;-18438.72;;;7.69;100.00
60583;BME280;46415;47.536;19.066;2024-02-21T07:48:10;-18440.09;;;7.74;100.00
60583;BME280;46415;47.536;19.066;2024-02-21T07:51:13;-18441.06;;;7.78;100.00
60583;BME280;46415;47.536;19.066;2024-02-21T07:54:16;-18443.53;;;7.87;100.00
60583;BME280;46415;47.536;19.066;2024-02-21T07:57:22;-18447.63;;;8.02;100.00
60583;BME280;46415;47.536;19.066;2024-02-21T08:00:25;-18450.53;;;8.13;100.00
60583;BME280;46415;47.536;19.066;2024-02-21T08:03:28;-18453.41;;;8.24;100.00
60583;BME280;46415;47.536;19.066;2024-02-21T08:06:31;-18460.13;;;8.48;100.00
60583;BME280;46415;47.536;19.066;2024-02-21T08:09:35;-18461.22;;;8.52;100.00
60583;BME280;46415;47.536;19.066;2024-02-21T08:12:39;-18465.06;;;8.67;100.00
60583;BME280;46415;47.536;19.066;2024-02-21T08:15:42;-18464.25;;;8.64;100.00
60583;BME280;46415;47.536;19.066;2024-02-21T08:18:45;-18470.81;;;8.88;100.00
60583;BME280;46415;47.536;19.066;2024-02-21T08:21:48;-18470.56;;;8.87;100.00
60583;BME280;46415;47.536;19.066;2024-02-21T08:24:50;-18471.50;;;8.90;100.00
60583;BME280;46415;47.536;19.066;2024-02-21T08:27:59;-18470.13;;;8.85;100.00
60583;BME280;46415;47.536;19.066;2024-02-21T08:31:04;-18472.75;;;8.95;100.00
60583;BME280;46415;47.536;19.066;2024-02-21T08:34:07;-18474.81;;;9.02;100.00
60583;BME280;46415;47.536;19.066;2024-02-21T08:37:10;-18475.63;;;9.06;100.00
60583;BME280;46415;47.536;19.066;2024-02-21T08:40:14;-18477.13;;;9.11;100.00
60583;BME280;46415;47.536;19.066;2024-02-21T08:43:20;-18480.41;;;9.23;100.00
60583;BME280;46415;47.536;19.066;2024-02-21T08:46:23;-18481.78;;;9.28;100.00
60583;BME280;46415;47.536;19.066;2024-02-21T08:49:26;-18487.69;;;9.50;100.00
60583;BME280;46415;47.536;19.066;2024-02-21T08:52:36;-18492.87;;;9.69;100.00
60583;BME280;46415;47.536;19.066;2024-02-21T08:55:39;-18500.69;;;9.98;100.00
60583;BME280;46415;47.536;19.066;2024-02-21T08:58:42;-18494.66;;;9.76;100.00
60583;BME280;46415;47.536;19.066;2024-02-21T09:01:45;-18499.31;;;9.93;100.00
60583;BME280;46415;47.536;19.066;2024-02-21T09:04:48;-18506.88;;;10.21;100.00
60583;BME280;46415;47.536;19.066;2024-02-21T09:07:53;-18512.34;;;10.41;98.82
60583;BME280;46415;47.536;19.066;2024-02-21T09:10:56;-18515.91;;;10.54;95.44
60583;BME280;46415;47.536;19.066;2024-02-21T09:14:00;-18518.22;;;10.63;94.48
60583;BME280;46415;47.536;19.066;2024-02-21T09:17:03;-18510.28;;;10.34;94.83
60583;BME280;46415;47.536;19.066;2024-02-21T09:20:07;-18511.78;;;10.39;95.95
60583;BME280;46415;47.536;19.066;2024-02-21T09:23:11;-18513.44;;;10.45;96.16
60583;BME280;46415;47.536;19.066;2024-02-21T09:26:14;-18513.16;;;10.44;95.42
60583;BME280;46415;47.536;19.066;2024-02-21T09:29:19;-18515.22;;;10.52;96.13
60583;BME280;46415;47.536;19.066;2024-02-21T09:32:26;-18518.09;;;10.62;95.84
60583;BME280;46415;47.536;19.066;2024-02-21T09:35:29;-18512.34;;;10.41;94.60
60583;BME280;46415;47.536;19.066;2024-02-21T09:38:32;-18512.06;;;10.40;94.79
60583;BME280;46415;47.536;19.066;2024-02-21T09:41:36;-18509.75;;;10.32;93.32
60583;BME280;46415;47.536;19.066;2024-02-21T09:44:42;-18508.91;;;10.29;94.34
60583;BME280;46415;47.536;19.066;2024-02-21T09:51:24;-18510.56;;;10.35;91.96
60583;BME280;46415;47.536;19.066;2024-02-21T09:54:30;-18516.72;;;10.57;91.43
60583;BME280;46415;47.536;19.066;2024-02-21T09:57:37;-18525.50;;;10.90;90.10
60583;BME280;46415;47.536;19.066;2024-02-21T10:00:40;-18532.19;;;11.15;87.63
60583;BME280;46415;47.536;19.066;2024-02-21T10:03:43;-18543.41;;;11.56;85.70
60583;BME280;46415;47.536;19.066;2024-02-21T10:06:46;-18546.16;;;11.66;84.50
60583;BME280;46415;47.536;19.066;2024-02-21T10:10:00;-18552.31;;;11.89;81.72
60583;BME280;46415;47.536;19.066;2024-02-21T10:13:03;-18556.81;;;12.06;82.36
60583;BME280;46415;47.536;19.066;2024-02-21T10:16:07;-18557.38;;;12.08;80.10
60583;BME280;46415;47.536;19.066;2024-02-21T10:19:20;-18560.38;;;12.19;80.95
60583;BME280;46415;47.536;19.066;2024-02-21T10:22:29;-18569.94;;;12.54;77.56
60583;BME280;46415;47.536;19.066;2024-02-21T10:25:36;-18563.94;;;12.32;78.20
60583;BME280;46415;47.536;19.066;2024-02-21T10:28:48;-18561.75;;;12.24;77.85
60583;BME280;46415;47.536;19.066;2024-02-21T10:32:07;-18573.22;;;12.66;78.46
60583;BME280;46415;47.536;19.066;2024-02-21T10:35:10;-18578.44;;;12.86;78.11
60583;BME280;46415;47.536;19.066;2024-02-21T10:38:16;-18576.66;;;12.79;78.69
60583;BME280;46415;47.536;19.066;2024-02-21T10:41:20;-18571.31;;;12.59;77.20
60583;BME280;46415;47.536;19.066;2024-02-21T10:44:24;-18575.97;;;12.77;78.35
60583;BME280;46415;47.536;19.066;2024-02-21T10:47:29;-18575.97;;;12.77;79.00
60583;BME280;46415;47.536;19.066;2024-02-21T10:50:43;-18572.69;;;12.64;79.22
60583;BME280;46415;47.536;19.066;2024-02-21T10:57:16;-18578.69;;;12.87;76.79
60583;BME280;46415;47.536;19.066;2024-02-21T11:00:19;-18569.94;;;12.54;78.17
60583;BME280;46415;47.536;19.066;2024-02-21T11:03:24;-18573.22;;;12.66;78.73
60583;BME280;46415;47.536;19.066;2024-02-21T11:06:28;-18582.25;;;13.00;75.63
60583;BME280;46415;47.536;19.066;2024-02-21T11:09:32;-18585.13;;;13.11;74.42
60583;BME280;46415;47.536;19.066;2024-02-21T11:12:36;-18594.00;;;13.43;74.05
60583;BME280;46415;47.536;19.066;2024-02-21T11:15:39;-18598.66;;;13.61;71.92
60583;BME280;46415;47.536;19.066;2024-02-21T11:18:42;-18594.69;;;13.46;72.52
60583;BME280;46415;47.536;19.066;2024-02-21T11:21:45;-18578.56;;;12.86;74.19
60583;BME280;46415;47.536;19.066;2024-02-21T11:24:48;-18562.97;;;12.28;76.87
60583;BME280;46415;47.536;19.066;2024-02-21T11:27:59;-18555.72;;;12.02;77.16
60583;BME280;46415;47.536;19.066;2024-02-21T11:31:10;-18547.38;;;11.71;78.10
60583;BME280;46415;47.536;19.066;2024-02-21T11:34:17;-18549.97;;;11.80;76.77
60583;BME280;46415;47.536;19.066;2024-02-21T11:37:25;-18553.41;;;11.93;77.00
60583;BME280;46415;47.536;19.066;2024-02-21T11:40:28;-18552.72;;;11.91;76.96
60583;BME280;46415;47.536;19.066;2024-02-21T11:43:30;-18555.47;;;12.01;74.52
60583;BME280;46415;47.536;19.066;2024-02-21T11:46:33;-18567.22;;;12.44;74.38
60583;BME280;46415;47.536;19.066;2024-02-21T11:49:44;-18575.41;;;12.75;74.87
60583;BME280;46415;47.536;19.066;2024-02-21T11:52:48;-18578.69;;;12.87;73.22
60583;BME280;46415;47.536;19.066;2024-02-21T11:55:51;-18572.97;;;12.65;76.29
60583;BME280;46415;47.536;19.066;2024-02-21T11:58:54;-18565.03;;;12.36;74.02
60583;BME280;46415;47.536;19.066;2024-02-21T12:01:58;-18552.16;;;11.89;78.88
60583;BME280;46415;47.536;19.066;2024-02-21T12:05:01;-18540.81;;;11.46;80.21
60583;BME280;46415;47.536;19.066;2024-02-21T12:08:05;-18538.91;;;11.39;80.70
60583;BME280;46415;47.536;19.066;2024-02-21T12:11:23;-18535.63;;;11.27;80.80
60583;BME280;46415;47.536;19.066;2024-02-21T12:14:28;-18538.50;;;11.38;79.36
60583;BME280;46415;47.536;19.066;2024-02-21T12:17:37;-18544.50;;;11.60;77.29
60583;BME280;46415;47.536;19.066;2024-02-21T12:20:40;-18541.78;;;11.50;78.32
60583;BME280;46415;47.536;19.066;2024-02-21T12:23:45;-18543.69;;;11.57;75.37
60583;BME280;46415;47.536;19.066;2024-02-21T12:26:50;-18543.56;;;11.57;72.84
60583;BME280;46415;47.536;19.066;2024-02-21T12:29:55;-18541.09;;;11.48;73.79
60583;BME280;46415;47.536;19.066;2024-02-21T12:32:57;-18544.50;;;11.60;73.92
60583;BME280;46415;47.536;19.066;2024-02-21T12:36:02;-18544.38;;;11.60;74.42
60583;BME280;46415;47.536;19.066;2024-02-21T12:39:06;-18550.53;;;11.82;75.53
60583;BME280;46415;47.536;19.066;2024-02-21T12:42:27;-18557.22;;;12.07;73.35
60583;BME280;46415;47.536;19.066;2024-02-21T12:45:31;-18556.53;;;12.05;72.28
60583;BME280;46415;47.536;19.066;2024-02-21T12:48:33;-18552.59;;;11.90;74.76
60583;BME280;46415;47.536;19.066;2024-02-21T12:51:36;-18556.53;;;12.05;74.36
60583;BME280;46415;47.536;19.066;2024-02-21T12:54:40;-18561.47;;;12.23;72.67
60583;BME280;46415;47.536;19.066;2024-02-21T12:57:45;-18566.81;;;12.43;71.00
60583;BME280;46415;47.536;19.066;2024-02-21T13:00:48;-18561.06;;;12.21;71.18
60583;BME280;46415;47.536;19.066;2024-02-21T13:03:50;-18561.75;;;12.24;70.94
60583;BME280;46415;47.536;19.066;2024-02-21T13:06:53;-18563.13;;;12.29;70.39
60583;BME280;46415;47.536;19.066;2024-02-21T13:09:56;-18568.72;;;12.50;69.34
60583;BME280;46415;47.536;19.066;2024-02-21T13:13:03;-18572.12;;;12.62;68.99
60583;BME280;46415;47.536;19.066;2024-02-21T13:16:06;-18568.59;;;12.49;69.48
60583;BME280;46415;47.536;19.066;2024-02-21T13:19:09;-18563.38;;;12.30;68.88
60583;BME280;46415;47.536;19.066;2024-02-21T13:22:12;-18554.50;;;11.97;70.35
60583;BME280;46415;47.536;19.066;2024-02-21T13:25:15;-18555.47;;;12.01;70.98
60583;BME280;46415;47.536;19.066;2024-02-21T13:28:23;-18556.13;;;12.03;70.05
60583;BME280;46415;47.536;19.066;2024-02-21T13:31:26;-18558.31;;;12.11;69.69
60583;BME280;46415;47.536;19.066;2024-02-21T13:34:29;-18563.13;;;12.29;69.32
60583;BME280;46415;47.536;19.066;2024-02-21T13:37:32;-18567.91;;;12.47;68.19
60583;BME280;46415;47.536;19.066;2024-02-21T13:40:35;-18576.91;;;12.80;67.42
60583;BME280;46415;47.536;19.066;2024-02-21T13:43:38;-18588.94;;;13.25;66.62
60583;BME280;46415;47.536;19.066;2024-02-21T13:46:41;-18597.28;;;13.56;64.22
60583;BME280;46415;47.536;19.066;2024-02-21T13:49:44;-18604.94;;;13.84;63.26
60583;BME280;46415;47.536;19.066;2024-02-21T13:52:47;-18595.22;;;13.48;58.97
60583;BME280;46415;47.536;19.066;2024-02-21T13:55:50;-18584.84;;;13.09;60.52
60583;BME280;46415;47.536;19.066;2024-02-21T13:58:53;-18583.88;;;13.06;61.67
60583;BME280;46415;47.536;19.066;2024-02-21T14:01:56;-18572.69;;;12.64;62.69
60583;BME280;46415;47.536;19.066;2024-02-21T14:04:59;-18565.72;;;12.39;63.11
60583;BME280;46415;47.536;19.066;2024-02-21T14:08:02;-18560.78;;;12.20;63.34
60583;BME280;46415;47.536;19.066;2024-02-21T14:11:07;-18565.03;;;12.36;63.54
60583;BME280;46415;47.536;19.066;2024-02-21T14:14:10;-18566.13;;;12.40;63.49
60583;BME280;46415;47.536;19.066;2024-02-21T14:17:13;-18563.13;;;12.29;63.74
60583;BME280;46415;47.536;19.066;2024-02-21T14:20:16;-18567.75;;;12.46;65.22
60583;BME280;46415;47.536;19.066;2024-02-21T14:23:19;-18574.88;;;12.73;64.60
60583;BME280;46415;47.536;19.066;2024-02-21T14:26:23;-18581.03;;;12.95;60.55
60583;BME280;46415;47.536;19.066;2024-02-21T14:29:26;-18589.63;;;13.27;60.29
60583;BME280;46415;47.536;19.066;2024-02-21T14:32:29;-18603.56;;;13.79;57.81
60583;BME280;46415;47.536;19.066;2024-02-21T14:35:32;-18615.16;;;14.22;56.73
60583;BME280;46415;47.536;19.066;2024-02-21T14:38:37;-18599.19;;;13.63;57.56
60583;BME280;46415;47.536;19.066;2024-02-21T14:41:39;-18593.72;;;13.42;58.11
60583;BME280;46415;47.536;19.066;2024-02-21T14:44:42;-18591.81;;;13.35;58.57
60583;BME280;46415;47.536;19.066;2024-02-21T14:47:45;-18594.13;;;13.44;59.27
60583;BME280;46415;47.536;19.066;2024-02-21T14:50:48;-18589.91;;;13.28;59.46
60583;BME280;46415;47.536;19.066;2024-02-21T14:53:51;-18588.25;;;13.22;59.75
60583;BME280;46415;47.536;19.066;2024-02-21T14:56:53;-18587.16;;;13.18;60.29
60583;BME280;46415;47.536;19.066;2024-02-21T14:59:57;-18587.03;;;13.18;59.65
60583;BME280;46415;47.536;19.066;2024-02-21T15:03:03;-18585.13;;;13.11;60.69
60583;BME280;46415;47.536;19.066;2024-02-21T15:06:06;-18582.66;;;13.01;61.34
60583;BME280;46415;47.536;19.066;2024-02-21T15:09:09;-18577.88;;;12.84;60.96
60583;BME280;46415;47.536;19.066;2024-02-21T15:12:12;-18577.06;;;12.81;60.43
60583;BME280;46415;47.536;19.066;2024-02-21T15:15:15;-18574.72;;;12.72;60.58
60583;BME280;46415;47.536;19.066;2024-02-21T15:18:19;-18569.94;;;12.54;61.30
60583;BME280;46415;47.536;19.066;2024-02-21T15:21:22;-18569.13;;;12.51;60.83
60583;BME280;46415;47.536;19.066;2024-02-21T15:24:25;-18566.81;;;12.43;61.54
60583;BME280;46415;47.536;19.066;2024-02-21T15:27:28;-18565.03;;;12.36;62.04
60583;BME280;46415;47.536;19.066;2024-02-21T15:30:31;-18558.47;;;12.12;62.77
60583;BME280;46415;47.536;19.066;2024-02-21T15:33:34;-18552.59;;;11.90;62.92
60583;BME280;46415;47.536;19.066;2024-02-21T15:36:41;-18550.53;;;11.82;63.46
60583;BME280;46415;47.536;19.066;2024-02-21T15:39:44;-18549.44;;;11.78;63.72
60583;BME280;46415;47.536;19.066;2024-02-21T15:42:48;-18546.97;;;11.69;64.76
60583;BME280;46415;47.536;19.066;2024-02-21T15:45:50;-18545.59;;;11.64;65.81
60583;BME280;46415;47.536;19.066;2024-02-21T15:48:53;-18542.03;;;11.51;65.92
60583;BME280;46415;47.536;19.066;2024-02-21T15:51:57;-18541.09;;;11.48;65.18
60583;BME280;46415;47.536;19.066;2024-02-21T15:55:00;-18539.03;;;11.40;65.49